Aérodrome :
LOGIN :

S'inscrire | Disclaimer

   EN    FR    IT 

 










Légende :    VFR   VFR Marginal   IFR   IFR Intensif   IFR Très Intensif
Visi : 
Plafond : 
>= 8 km
>= 3000ft
5 à 8 km
1000 à 3000 ft
1500m à 5 km
500 à 1000 ft
800 à 1500m
200 à 500 ft
< 800m
< 200 ft
Symboles :   Orages  Brouillard  Fortes neiges  Fortes précipitations  Vent > 20 kt
SIGMETs :   Divers  Orages  Givrage  Turbulence  Onde Orograph.  Cendres Volcan.







- Altitude de l'aérodrome : 39 ft
- Code IATA : TRS


LIPQ - Friuli Venezia Giulia Apt. Trieste

DERNIER METAR :
  • 261720Z 13007KT 9999 BKN050 15/12 Q1009

METARs EXPIRÉS :
  • 261650Z 12008KT 9999 BKN050 14/12 Q1009
  • 261620Z 09006KT 7000 BKN050 14/12 Q1009
  • 261550Z 10007KT 7000 -RA BKN050 14/13 Q1009
  • 261520Z 11007KT 6000 -RA BKN050 14/13 Q1010
  • 261450Z 13006KT 5000 -RA BR BKN050 14/13 Q1010 RERA

TAF TAF LIPQ
Valide du 26 à 18h jusqu'au 27 à 18h UTC


261700Z 2618/2718 19010KT 9999 SCT050
TEMPO 2618/2622 SHRA
TEMPO 2622/2706 TSRA
TEMPO 2709/2718 SHRA
Pas de NOTAMs connus pour ce terrain.
1 SIGMET publié pour la FIR Milano (LIMM) :
 
Orages noyés dans la masse
LIMM SIGMET 6 VALID 261635/261835 LIMM- LIMM MILANO FIR EMBD TS FCST WI N4347 E00735 - N4310 E00944 - N4335 E01016 - N4342 E01110 - N4337 E01210 - N4437 E01013 - N4537 E01352 - N4625 E01316 - N4642 E01221 - N4633 E01110 - N4552 E00859 - N4347 E00735 TOP FL300 STNR NC=



MET'MAP, la Météo Aéronautique d'un coup d'oeil ! - Copyright ORBIFLY Décembre 2007 - Disclaimer

ORBIFLY MET'MAP TEAM :

Programmation & Développement : Alexandra Zaïnal
Conception & Développement : Baudouin d'Aumeries
Co-Programmation & Développement : Marc-Olivier Méhu
Soutien technique & logistique : Manuel Goepfert

Contact : metmap@orbifly.com




SOURCES & CREDITS :

   NOAA